Time;durP1;ratioP1;P1;durP2;ratioP2;P2;SDS_P1;SDS_P2;PMS_P1;PMS_P2;Temp;Humidity;BMP_temperature;BMP_pressure;BME280_temperature;BME280_humidity;BME280_pressure;Samples;Min_cycle;Max_cycle;Signal;HPM_P1;HPM_P2
2024/04/19 00:01:01;;;;;;;4.67;3.40;;;;;;;;;;5523229;26;20282;-60
2024/04/19 00:03:29;;;;;;;3.47;3.27;;;;;;;;;;5491690;26;20235;-60
2024/04/19 00:05:58;;;;;;;2.90;2.80;;;;;;;;;;5519880;26;20229;-60
2024/04/19 00:08:27;;;;;;;2.70;2.60;;;;;;;;;;5511171;26;20230;-60
2024/04/19 00:10:55;;;;;;;3.43;3.23;;;;;;;;;;5522117;25;20590;-60
2024/04/19 00:13:24;;;;;;;4.00;3.70;;;;;;;;;;5521644;26;20295;-59
2024/04/19 00:15:51;;;;;;;3.23;3.03;;;;;;;;;;5487438;26;20214;-60
2024/04/19 00:18:20;;;;;;;3.67;3.47;;;;;;;;;;5488981;26;20335;-60
2024/04/19 00:20:46;;;;;;;3.13;2.87;;;;;;;;;;5486750;26;20219;-60
2024/04/19 00:23:17;;;;;;;3.27;3.17;;;;;;;;;;5491585;26;20236;-60
2024/04/19 00:25:44;;;;;;;3.20;2.90;;;;;;;;;;5502525;26;20273;-60
2024/04/19 00:28:13;;;;;;;4.30;3.37;;;;;;;;;;5501710;26;20338;-60
2024/04/19 00:30:39;;;;;;;2.70;2.60;;;;;;;;;;5523314;25;20215;-60
2024/04/19 00:33:10;;;;;;;3.23;3.03;;;;;;;;;;5523926;26;20317;-60
2024/04/19 00:35:36;;;;;;;3.90;3.70;;;;;;;;;;5521842;26;20720;-60
2024/04/19 00:38:08;;;;;;;3.70;3.40;;;;;;;;;;5521757;26;20711;-60
2024/04/19 00:40:37;;;;;;;2.93;2.73;;;;;;;;;;5488848;25;20275;-60
2024/04/19 00:43:08;;;;;;;3.57;3.27;;;;;;;;;;5486986;26;20223;-60
2024/04/19 00:45:35;;;;;;;3.37;3.17;;;;;;;;;;5486638;26;20254;-60
2024/04/19 00:48:12;;;;;;;4.73;3.30;;;;;;;;;;5487522;26;20354;-59
2024/04/19 00:50:39;;;;;;;3.67;3.47;;;;;;;;;;5516469;26;20226;-60
2024/04/19 00:53:08;;;;;;;3.73;3.40;;;;;;;;;;5513511;26;20338;-60
2024/04/19 00:55:38;;;;;;;3.33;3.10;;;;;;;;;;5522920;25;20219;-60
2024/04/19 00:58:08;;;;;;;3.30;3.07;;;;;;;;;;5511192;26;20229;-60
2024/04/19 01:00:35;;;;;;;4.90;3.10;;;;;;;;;;5486059;26;20266;-60
2024/04/19 01:03:07;;;;;;;3.67;3.47;;;;;;;;;;5508174;26;20294;-60
2024/04/19 01:05:33;;;;;;;4.27;3.97;;;;;;;;;;5520546;26;21017;-60
2024/04/19 01:08:06;;;;;;;5.10;4.60;;;;;;;;;;5522810;26;20271;-60
2024/04/19 01:10:33;;;;;;;5.30;4.90;;;;;;;;;;5522610;26;20329;-60
2024/04/19 01:13:09;;;;;;;4.77;4.47;;;;;;;;;;5523189;26;20281;-60
2024/04/19 01:15:39;;;;;;;5.33;5.00;;;;;;;;;;5515908;26;20315;-60
2024/04/19 01:18:09;;;;;;;5.37;4.83;;;;;;;;;;5501292;26;20228;-60
2024/04/19 01:20:36;;;;;;;6.07;5.47;;;;;;;;;;5485696;26;20751;-60
2024/04/19 01:23:08;;;;;;;5.30;4.90;;;;;;;;;;5486031;26;20439;-59
2024/04/19 01:25:36;;;;;;;5.70;5.20;;;;;;;;;;5488309;26;20258;-61
2024/04/19 01:28:10;;;;;;;4.70;4.37;;;;;;;;;;5518458;26;20228;-60
2024/04/19 01:30:37;;;;;;;6.30;5.73;;;;;;;;;;5526036;26;20271;-60
2024/04/19 01:33:08;;;;;;;5.30;4.83;;;;;;;;;;5526590;26;20329;-61
2024/04/19 01:35:35;;;;;;;4.77;4.47;;;;;;;;;;5526627;26;20256;-60
2024/04/19 01:38:05;;;;;;;5.73;5.07;;;;;;;;;;5526029;26;20273;-60
2024/04/19 01:40:32;;;;;;;5.67;5.27;;;;;;;;;;5520937;26;20237;-60
2024/04/19 01:43:04;;;;;;;4.80;4.50;;;;;;;;;;5514491;26;20285;-59
2024/04/19 01:45:36;;;;;;;5.27;4.97;;;;;;;;;;5526602;26;20263;-60
2024/04/19 01:48:06;;;;;;;5.27;4.77;;;;;;;;;;5519342;25;20710;-59
2024/04/19 01:50:35;;;;;;;5.60;5.10;;;;;;;;;;5507891;25;20236;-59
2024/04/19 01:53:01;;;;;;;4.77;4.47;;;;;;;;;;5508148;26;20233;-60
2024/04/19 01:55:30;;;;;;;4.67;4.30;;;;;;;;;;5524855;25;20227;-60
2024/04/19 01:57:56;;;;;;;5.23;4.60;;;;;;;;;;5518617;25;20226;-60
2024/04/19 02:00:25;;;;;;;4.80;4.50;;;;;;;;;;5488876;26;20301;-60
2024/04/19 02:02:54;;;;;;;4.67;4.27;;;;;;;;;;5489396;26;20228;-60
2024/04/19 02:05:23;;;;;;;4.93;4.60;;;;;;;;;;5513699;26;20232;-61
2024/04/19 02:07:49;;;;;;;5.87;5.43;;;;;;;;;;5511177;26;20234;-60
2024/04/19 02:10:18;;;;;;;4.83;4.53;;;;;;;;;;5525520;25;20226;-60
2024/04/19 02:12:44;;;;;;;5.27;4.87;;;;;;;;;;5526084;26;20893;-60
2024/04/19 02:15:14;;;;;;;5.23;4.83;;;;;;;;;;5526104;25;20233;-59
2024/04/19 02:17:40;;;;;;;4.80;4.50;;;;;;;;;;5521189;25;20277;-60
2024/04/19 02:20:12;;;;;;;5.00;4.60;;;;;;;;;;5525236;25;20225;-60
2024/04/19 02:22:39;;;;;;;6.17;5.67;;;;;;;;;;5525899;26;20648;-60
2024/04/19 02:25:08;;;;;;;4.73;4.43;;;;;;;;;;5525866;26;20218;-60
2024/04/19 02:33:07;;;;;;;5.23;4.73;;;;;;;;;;5517784;26;20276;-60
2024/04/19 02:35:39;;;;;;;4.73;4.43;;;;;;;;;;5525550;25;20222;-60
2024/04/19 02:38:08;;;;;;;5.27;4.87;;;;;;;;;;5524285;26;20729;-60
2024/04/19 02:40:37;;;;;;;4.57;4.27;;;;;;;;;;5525005;26;20259;-60
2024/04/19 02:43:07;;;;;;;4.90;4.53;;;;;;;;;;5521900;25;20291;-59
2024/04/19 02:45:41;;;;;;;5.17;4.87;;;;;;;;;;5492018;26;20332;-60
2024/04/19 02:48:10;;;;;;;5.87;5.37;;;;;;;;;;5496779;26;20264;-60
2024/04/19 02:50:41;;;;;;;5.50;5.10;;;;;;;;;;5524817;26;20214;-60
2024/04/19 02:53:10;;;;;;;5.60;5.07;;;;;;;;;;5525053;26;20257;-59
2024/04/19 02:55:39;;;;;;;6.03;5.63;;;;;;;;;;5521899;26;20605;-60
2024/04/19 02:58:08;;;;;;;6.53;5.90;;;;;;;;;;5506020;25;20234;-59
2024/04/19 03:00:37;;;;;;;6.40;5.90;;;;;;;;;;5523859;26;20218;-60
2024/04/19 03:03:08;;;;;;;6.37;5.77;;;;;;;;;;5525476;26;20265;-59
2024/04/19 03:05:37;;;;;;;6.33;5.73;;;;;;;;;;5523510;26;20270;-60
2024/04/19 03:08:10;;;;;;;5.67;5.27;;;;;;;;;;5505438;25;20266;-60
2024/04/19 03:10:40;;;;;;;5.40;4.97;;;;;;;;;;5524625;26;20257;-60
2024/04/19 03:13:11;;;;;;;6.03;5.53;;;;;;;;;;5525261;25;20212;-60
2024/04/19 03:15:40;;;;;;;6.20;5.73;;;;;;;;;;5525311;25;20251;-60
2024/04/19 03:18:09;;;;;;;6.37;5.87;;;;;;;;;;5522733;26;20238;-60
2024/04/19 03:20:38;;;;;;;5.97;5.47;;;;;;;;;;5505640;25;20231;-60
2024/04/19 03:23:11;;;;;;;7.00;6.37;;;;;;;;;;5488077;26;20220;-60
2024/04/19 03:25:42;;;;;;;6.60;6.00;;;;;;;;;;5488351;26;20280;-60
2024/04/19 03:28:11;;;;;;;7.17;6.57;;;;;;;;;;5494686;26;20296;-60
2024/04/19 03:30:40;;;;;;;7.00;6.23;;;;;;;;;;5518537;26;20242;-60
2024/04/19 03:33:09;;;;;;;7.47;6.80;;;;;;;;;;5514450;26;20229;-60
2024/04/19 03:35:42;;;;;;;7.63;6.53;;;;;;;;;;5524895;25;20219;-60
2024/04/19 03:38:14;;;;;;;7.57;6.87;;;;;;;;;;5521111;26;20235;-60
2024/04/19 03:40:54;;;;;;;7.60;6.73;;;;;;;;;;5519860;26;20284;-60
2024/04/19 03:43:23;;;;;;;8.47;7.77;;;;;;;;;;5516121;25;20269;-60
2024/04/19 03:45:49;;;;;;;7.73;7.03;;;;;;;;;;5524038;26;20285;-60
2024/04/19 03:48:19;;;;;;;7.93;7.33;;;;;;;;;;5507485;26;20241;-60
2024/04/19 03:50:48;;;;;;;8.57;7.60;;;;;;;;;;5519232;25;20796;-60
2024/04/19 03:53:17;;;;;;;7.77;7.17;;;;;;;;;;5507842;26;20750;-60
2024/04/19 03:55:48;;;;;;;8.43;7.63;;;;;;;;;;5523472;26;20796;-59
2024/04/19 03:58:17;;;;;;;8.30;7.50;;;;;;;;;;5523009;25;20354;-60
2024/04/19 04:00:46;;;;;;;8.20;7.50;;;;;;;;;;5502704;25;20341;-60
2024/04/19 04:03:12;;;;;;;8.30;7.60;;;;;;;;;;5487432;26;20312;-60
2024/04/19 04:05:41;;;;;;;7.80;7.10;;;;;;;;;;5502106;26;20335;-60
2024/04/19 04:08:10;;;;;;;8.83;7.83;;;;;;;;;;5487194;26;20242;-60
2024/04/19 04:10:39;;;;;;;7.83;7.20;;;;;;;;;;5486611;26;20227;-60
2024/04/19 04:13:12;;;;;;;7.93;7.13;;;;;;;;;;5491773;26;20269;-60
2024/04/19 04:15:41;;;;;;;7.77;7.00;;;;;;;;;;5520421;26;20265;-60
2024/04/19 04:18:10;;;;;;;8.23;7.47;;;;;;;;;;5497328;26;20226;-60
2024/04/19 04:20:36;;;;;;;9.33;8.37;;;;;;;;;;5486613;26;20273;-60
2024/04/19 04:23:05;;;;;;;8.70;7.83;;;;;;;;;;5486967;26;20237;-60
2024/04/19 04:25:36;;;;;;;8.47;7.53;;;;;;;;;;5517096;26;20235;-60
2024/04/19 04:28:09;;;;;;;9.53;8.57;;;;;;;;;;5505735;25;20279;-60
2024/04/19 04:30:40;;;;;;;9.20;8.23;;;;;;;;;;5521810;26;20801;-60
2024/04/19 04:33:09;;;;;;;9.80;8.80;;;;;;;;;;5510879;26;20281;-60
2024/04/19 04:35:39;;;;;;;8.60;7.87;;;;;;;;;;5511695;26;20732;-60
2024/04/19 04:38:10;;;;;;;8.87;8.10;;;;;;;;;;5518634;25;20796;-57
2024/04/19 04:40:39;;;;;;;9.10;8.30;;;;;;;;;;5517369;26;20231;-59
2024/04/19 04:43:08;;;;;;;8.40;7.53;;;;;;;;;;5520666;26;20223;-59
2024/04/19 04:45:37;;;;;;;10.03;9.03;;;;;;;;;;5500434;25;20280;-58
2024/04/19 04:48:10;;;;;;;7.53;6.93;;;;;;;;;;5507049;26;20234;-56
2024/04/19 04:50:59;;;;;;;7.37;6.77;;;;;;;;;;5485306;26;20266;-55
2024/04/19 04:53:28;;;;;;;9.60;8.60;;;;;;;;;;5503406;26;20737;-56
2024/04/19 04:55:57;;;;;;;7.93;7.23;;;;;;;;;;5518211;26;20384;-55
2024/04/19 04:58:26;;;;;;;9.37;8.37;;;;;;;;;;5489021;26;20307;-55
2024/04/19 05:00:58;;;;;;;8.33;7.50;;;;;;;;;;5516888;26;20317;-63
2024/04/19 05:03:30;;;;;;;7.77;7.00;;;;;;;;;;5509202;26;20225;-60
2024/04/19 05:05:59;;;;;;;13.07;10.30;;;;;;;;;;5504141;26;20268;-59
2024/04/19 05:08:28;;;;;;;10.00;9.03;;;;;;;;;;5489745;26;20778;-60
2024/04/19 05:10:57;;;;;;;9.50;8.50;;;;;;;;;;5489015;26;20219;-58
2024/04/19 05:13:26;;;;;;;8.97;8.07;;;;;;;;;;5489855;26;20266;-59
2024/04/19 05:15:56;;;;;;;8.37;7.57;;;;;;;;;;5499441;26;20769;-60
2024/04/19 05:18:26;;;;;;;9.13;8.20;;;;;;;;;;5489717;26;20266;-63
2024/04/19 05:20:57;;;;;;;8.37;7.67;;;;;;;;;;5489091;26;20224;-58
2024/04/19 05:23:26;;;;;;;8.53;7.67;;;;;;;;;;5519477;26;20772;-58
2024/04/19 05:25:55;;;;;;;7.07;6.47;;;;;;;;;;5525371;25;20224;-59
2024/04/19 05:28:24;;;;;;;8.53;7.73;;;;;;;;;;5522250;25;20273;-59
2024/04/19 05:30:53;;;;;;;8.23;7.43;;;;;;;;;;5503784;26;20719;-59
2024/04/19 05:33:23;;;;;;;8.67;7.67;;;;;;;;;;5489618;26;20240;-59
2024/04/19 05:35:52;;;;;;;8.87;7.80;;;;;;;;;;5510789;26;20226;-59
2024/04/19 05:38:24;;;;;;;8.37;7.57;;;;;;;;;;5497433;25;20229;-59
2024/04/19 05:40:53;;;;;;;9.30;8.50;;;;;;;;;;5525131;26;20558;-59
2024/04/19 05:43:22;;;;;;;9.47;7.97;;;;;;;;;;5526283;25;20738;-59
2024/04/19 05:45:52;;;;;;;9.30;8.40;;;;;;;;;;5519377;25;20270;-58
2024/04/19 05:48:20;;;;;;;8.87;8.07;;;;;;;;;;5489175;26;20729;-59
2024/04/19 05:50:50;;;;;;;7.43;6.73;;;;;;;;;;5488720;26;20225;-58
2024/04/19 05:53:18;;;;;;;7.87;7.10;;;;;;;;;;5488932;26;20231;-59
2024/04/19 05:55:50;;;;;;;8.47;7.77;;;;;;;;;;5505049;26;20279;-57
2024/04/19 05:58:21;;;;;;;8.43;7.57;;;;;;;;;;5526071;25;20227;-58
2024/04/19 06:00:50;;;;;;;9.63;8.40;;;;;;;;;;5524900;25;20744;-59
2024/04/19 06:03:19;;;;;;;13.07;8.53;;;;;;;;;;5525974;25;20221;-60
2024/04/19 06:05:47;;;;;;;9.27;8.37;;;;;;;;;;5520255;25;20285;-61
2024/04/19 06:08:17;;;;;;;9.73;8.83;;;;;;;;;;5497893;26;20629;-63
2024/04/19 06:10:46;;;;;;;8.60;7.80;;;;;;;;;;5488323;26;20231;-63
2024/04/19 06:13:17;;;;;;;8.57;7.80;;;;;;;;;;5500795;26;20262;-63
2024/04/19 06:15:46;;;;;;;7.33;6.73;;;;;;;;;;5500334;26;20229;-63
2024/04/19 06:18:16;;;;;;;8.07;7.27;;;;;;;;;;5489029;26;20563;-62
2024/04/19 06:20:45;;;;;;;7.87;7.17;;;;;;;;;;5488195;26;20235;-59
2024/04/19 06:23:14;;;;;;;8.43;7.73;;;;;;;;;;5495293;26;20226;-59
2024/04/19 06:25:43;;;;;;;7.87;7.27;;;;;;;;;;5495029;26;20243;-60
2024/04/19 06:28:12;;;;;;;7.43;6.83;;;;;;;;;;5487982;26;20751;-59
2024/04/19 06:30:44;;;;;;;6.77;6.17;;;;;;;;;;5506039;26;20277;-58
2024/04/19 06:33:13;;;;;;;7.72;7.13;;;;;;;;;;5522966;25;20685;-59
2024/04/19 06:35:42;;;;;;;9.03;7.73;;;;;;;;;;5521571;25;20264;-59
2024/04/19 06:38:13;;;;;;;7.80;7.00;;;;;;;;;;5496524;25;20228;-58
2024/04/19 06:40:44;;;;;;;7.50;6.90;;;;;;;;;;5485570;26;20274;-59
2024/04/19 06:43:13;;;;;;;7.20;6.63;;;;;;;;;;5486349;26;20319;-59
2024/04/19 06:45:45;;;;;;;6.80;6.30;;;;;;;;;;5495086;26;20277;-59
2024/04/19 06:48:14;;;;;;;7.90;7.23;;;;;;;;;;5512664;26;20226;-58
2024/04/19 06:50:43;;;;;;;8.67;7.80;;;;;;;;;;5504876;25;20230;-59
2024/04/19 06:53:12;;;;;;;7.93;7.20;;;;;;;;;;5518630;26;20227;-59
2024/04/19 06:55:41;;;;;;;6.20;5.70;;;;;;;;;;5505736;26;20221;-59
2024/04/19 06:58:10;;;;;;;8.13;7.43;;;;;;;;;;5501968;26;20278;-59
2024/04/19 07:00:40;;;;;;;8.33;7.57;;;;;;;;;;5493495;26;20227;-59
2024/04/19 07:03:12;;;;;;;7.70;6.67;;;;;;;;;;5488153;26;20334;-58
2024/04/19 07:05:42;;;;;;;6.73;6.10;;;;;;;;;;5504502;26;20287;-59
2024/04/19 07:08:11;;;;;;;6.97;6.47;;;;;;;;;;5486751;26;20227;-58
2024/04/19 07:10:40;;;;;;;8.13;7.43;;;;;;;;;;5485382;26;20737;-59
2024/04/19 07:13:09;;;;;;;8.40;7.63;;;;;;;;;;5486934;26;20223;-59
2024/04/19 07:15:39;;;;;;;6.67;6.17;;;;;;;;;;5489383;26;20562;-59
2024/04/19 07:18:15;;;;;;;6.87;6.17;;;;;;;;;;5488133;26;20223;-59
2024/04/19 07:20:45;;;;;;;7.13;6.47;;;;;;;;;;5490753;26;20243;-58
2024/04/19 07:23:13;;;;;;;6.87;6.27;;;;;;;;;;5524034;26;20218;-58
2024/04/19 07:25:42;;;;;;;6.43;5.93;;;;;;;;;;5490608;25;20339;-58
2024/04/19 07:28:14;;;;;;;6.50;6.03;;;;;;;;;;5488027;26;20226;-59
2024/04/19 07:30:43;;;;;;;6.67;6.17;;;;;;;;;;5490865;26;20303;-60
2024/04/19 07:33:15;;;;;;;7.57;6.87;;;;;;;;;;5501010;25;20226;-59
2024/04/19 07:35:43;;;;;;;6.07;5.30;;;;;;;;;;5489340;26;20273;-59
2024/04/19 07:38:13;;;;;;;6.17;5.77;;;;;;;;;;5500048;26;20273;-59
2024/04/19 07:40:42;;;;;;;5.63;5.17;;;;;;;;;;5490277;25;20228;-59
2024/04/19 07:43:11;;;;;;;6.70;6.10;;;;;;;;;;5515241;25;20239;-59
2024/04/19 07:45:40;;;;;;;6.60;5.27;;;;;;;;;;5520498;25;20280;-59
2024/04/19 07:48:10;;;;;;;4.60;4.20;;;;;;;;;;5514366;26;20272;-59
2024/04/19 07:50:42;;;;;;;5.10;4.73;;;;;;;;;;5499748;26;20276;-59
2024/04/19 07:53:11;;;;;;;5.80;4.67;;;;;;;;;;5502605;26;20231;-59
2024/04/19 07:55:42;;;;;;;5.13;4.83;;;;;;;;;;5505200;26;20226;-59
2024/04/19 07:58:11;;;;;;;5.67;5.17;;;;;;;;;;5498337;26;20230;-59
2024/04/19 08:00:40;;;;;;;5.30;4.90;;;;;;;;;;5489623;26;20236;-59
2024/04/19 08:03:09;;;;;;;3.97;3.77;;;;;;;;;;5488212;26;20271;-59
2024/04/19 08:05:37;;;;;;;4.60;4.30;;;;;;;;;;5518259;26;20238;-59
2024/04/19 08:08:11;;;;;;;3.73;3.53;;;;;;;;;;5493053;26;21000;-58
2024/04/19 08:10:40;;;;;;;4.50;4.20;;;;;;;;;;5490006;26;20584;-59
2024/04/19 08:13:10;;;;;;;4.33;3.80;;;;;;;;;;5501737;26;20296;-59
2024/04/19 08:15:39;;;;;;;3.33;3.13;;;;;;;;;;5503046;26;20272;-58
2024/04/19 08:18:10;;;;;;;4.03;3.75;;;;;;;;;;5515949;26;20890;-59
2024/04/19 08:20:39;;;;;;;3.40;3.20;;;;;;;;;;5518225;26;20217;-55
2024/04/19 08:23:11;;;;;;;2.73;2.63;;;;;;;;;;5511964;25;20227;-58
2024/04/19 08:25:40;;;;;;;3.40;3.20;;;;;;;;;;5483684;26;20273;-58
2024/04/19 08:28:09;;;;;;;4.53;4.23;;;;;;;;;;5483566;26;20835;-58
2024/04/19 08:30:38;;;;;;;3.63;3.43;;;;;;;;;;5500412;26;20562;-57
2024/04/19 08:33:11;;;;;;;3.67;3.47;;;;;;;;;;5510932;25;20573;-58
2024/04/19 08:35:39;;;;;;;3.53;3.33;;;;;;;;;;5481630;26;20230;-58
2024/04/19 08:38:13;;;;;;;3.97;3.60;;;;;;;;;;5483895;26;20260;-58
2024/04/19 08:40:42;;;;;;;3.53;3.33;;;;;;;;;;5497201;26;20231;-58
2024/04/19 08:43:13;;;;;;;3.83;3.63;;;;;;;;;;5486714;26;20229;-57
2024/04/19 08:45:42;;;;;;;3.20;2.90;;;;;;;;;;5493188;26;20232;-58
2024/04/19 08:48:11;;;;;;;2.87;2.73;;;;;;;;;;5498687;26;20230;-57
2024/04/19 08:50:40;;;;;;;2.93;2.73;;;;;;;;;;5513045;26;20226;-58
2024/04/19 08:53:13;;;;;;;4.67;4.10;;;;;;;;;;5486176;26;20738;-58
2024/04/19 08:55:43;;;;;;;3.77;3.50;;;;;;;;;;5486495;26;20277;-58
2024/04/19 08:58:13;;;;;;;3.60;3.33;;;;;;;;;;5486290;26;20281;-58
2024/04/19 09:00:42;;;;;;;3.30;3.00;;;;;;;;;;5511145;26;20231;-58
2024/04/19 09:03:11;;;;;;;3.47;3.17;;;;;;;;;;5496718;26;20230;-57
2024/04/19 09:05:37;;;;;;;3.60;3.30;;;;;;;;;;5522864;26;20229;-58
2024/04/19 09:08:09;;;;;;;2.77;2.67;;;;;;;;;;5522315;25;20237;-58
2024/04/19 09:10:40;;;;;;;2.73;2.53;;;;;;;;;;5514611;25;20229;-58
2024/04/19 09:13:10;;;;;;;3.73;3.43;;;;;;;;;;5485854;26;20235;-58
2024/04/19 09:15:40;;;;;;;4.47;3.20;;;;;;;;;;5495539;26;20222;-58
2024/04/19 09:18:09;;;;;;;4.17;3.80;;;;;;;;;;5521536;25;20227;-58
2024/04/19 09:20:38;;;;;;;4.33;3.63;;;;;;;;;;5514955;26;20254;-58
2024/04/19 09:23:09;;;;;;;3.67;3.33;;;;;;;;;;5497165;26;20232;-58
2024/04/19 09:25:41;;;;;;;3.37;3.07;;;;;;;;;;5496165;26;20655;-58
2024/04/19 09:28:12;;;;;;;3.43;3.23;;;;;;;;;;5486056;26;20228;-58
2024/04/19 09:30:43;;;;;;;2.60;2.50;;;;;;;;;;5509946;26;20286;-58
2024/04/19 09:33:19;;;;;;;2.63;2.43;;;;;;;;;;5485832;26;20663;-58
2024/04/19 09:35:48;;;;;;;3.07;2.23;;;;;;;;;;5485779;26;20233;-58
2024/04/19 09:38:18;;;;;;;1.93;1.83;;;;;;;;;;5512964;26;20234;-58
2024/04/19 09:40:50;;;;;;;2.53;2.40;;;;;;;;;;5511359;26;20273;-58
2024/04/19 09:43:23;;;;;;;3.03;1.80;;;;;;;;;;5485714;26;20232;-58
2024/04/19 09:45:57;;;;;;;3.07;1.97;;;;;;;;;;5486433;26;20228;-57
2024/04/19 09:48:31;;;;;;;1.67;1.57;;;;;;;;;;5489590;26;20266;-58
2024/04/19 09:51:00;;;;;;;1.63;1.53;;;;;;;;;;5512543;26;20639;-58
2024/04/19 09:53:30;;;;;;;1.47;1.47;;;;;;;;;;5489648;26;20285;-58
2024/04/19 09:56:13;;;;;;;1.50;1.50;;;;;;;;;;5526094;26;20227;-58
2024/04/19 09:58:42;;;;;;;1.50;1.40;;;;;;;;;;5525398;25;20774;-58
2024/04/19 10:01:11;;;;;;;1.87;1.43;;;;;;;;;;5515675;25;20231;-57
2024/04/19 10:03:40;;;;;;;1.80;1.40;;;;;;;;;;5489164;26;20740;-58
2024/04/19 10:06:10;;;;;;;1.33;1.23;;;;;;;;;;5489212;26;20276;-58
2024/04/19 10:08:39;;;;;;;1.83;1.63;;;;;;;;;;5488420;26;20231;-59
2024/04/19 10:11:11;;;;;;;1.80;1.70;;;;;;;;;;5521042;26;20230;-58
2024/04/19 10:13:40;;;;;;;1.27;1.27;;;;;;;;;;5495250;25;20270;-58
2024/04/19 10:16:09;;;;;;;2.20;1.90;;;;;;;;;;5501208;26;20235;-58
2024/04/19 10:18:38;;;;;;;2.63;2.53;;;;;;;;;;5488531;26;20235;-58
2024/04/19 10:21:08;;;;;;;4.40;2.00;;;;;;;;;;5511603;26;20266;-58
2024/04/19 10:23:39;;;;;;;1.70;1.60;;;;;;;;;;5488892;26;20226;-58
2024/04/19 10:26:11;;;;;;;2.10;1.53;;;;;;;;;;5488902;26;20226;-58
2024/04/19 10:28:37;;;;;;;1.37;1.37;;;;;;;;;;5503797;26;20285;-59
2024/04/19 10:31:08;;;;;;;1.20;1.10;;;;;;;;;;5511157;26;20294;-58
2024/04/19 10:33:37;;;;;;;2.20;1.50;;;;;;;;;;5488575;26;20231;-58
2024/04/19 10:36:06;;;;;;;1.20;1.10;;;;;;;;;;5487932;26;20786;-58
2024/04/19 10:38:35;;;;;;;1.70;1.60;;;;;;;;;;5488545;26;20229;-58
2024/04/19 10:41:04;;;;;;;2.83;1.20;;;;;;;;;;5510436;26;20281;-58
2024/04/19 10:43:44;;;;;;;1.50;1.40;;;;;;;;;;5488540;26;20235;-58
2024/04/19 10:46:14;;;;;;;1.33;1.33;;;;;;;;;;5505088;26;20283;-58
2024/04/19 10:48:44;;;;;;;1.63;1.00;;;;;;;;;;5487985;26;20341;-58
2024/04/19 10:51:15;;;;;;;4.03;0.90;;;;;;;;;;5510297;26;20235;-58
2024/04/19 10:53:44;;;;;;;1.10;0.90;;;;;;;;;;5488405;26;20235;-58
2024/04/19 10:56:13;;;;;;;0.83;0.73;;;;;;;;;;5488468;26;20742;-58
2024/04/19 10:58:45;;;;;;;0.50;0.50;;;;;;;;;;5486552;26;20274;-58
2024/04/19 11:01:14;;;;;;;0.50;0.50;;;;;;;;;;5494092;26;20239;-58
2024/04/19 11:03:43;;;;;;;1.00;1.00;;;;;;;;;;5504909;26;20287;-58
2024/04/19 11:06:12;;;;;;;1.33;0.60;;;;;;;;;;5497632;26;20226;-58
2024/04/19 11:08:42;;;;;;;0.97;0.67;;;;;;;;;;5487623;26;20235;-58
2024/04/19 11:11:12;;;;;;;0.40;0.40;;;;;;;;;;5509004;26;20617;-58
2024/04/19 11:13:41;;;;;;;0.50;0.50;;;;;;;;;;5486850;26;20232;-58
2024/04/19 11:16:12;;;;;;;2.33;0.97;;;;;;;;;;5488174;26;20734;-58
2024/04/19 11:18:42;;;;;;;0.97;0.40;;;;;;;;;;5488748;26;20231;-59
2024/04/19 11:21:12;;;;;;;0.50;0.43;;;;;;;;;;5515799;25;20239;-58
2024/04/19 11:23:41;;;;;;;0.47;0.30;;;;;;;;;;5488035;26;20286;-58
2024/04/19 11:26:09;;;;;;;0.40;0.40;;;;;;;;;;5488206;26;20231;-58
2024/04/19 11:28:39;;;;;;;0.30;0.30;;;;;;;;;;5487574;26;20350;-58
2024/04/19 11:31:13;;;;;;;0.47;0.47;;;;;;;;;;5507640;26;20231;-58
2024/04/19 11:33:42;;;;;;;1.60;0.50;;;;;;;;;;5487868;26;20234;-57
2024/04/19 11:36:12;;;;;;;0.40;0.40;;;;;;;;;;5512324;26;20229;-57
2024/04/19 11:38:40;;;;;;;0.70;0.40;;;;;;;;;;5491784;25;20231;-58
2024/04/19 11:41:12;;;;;;;0.30;0.30;;;;;;;;;;5516453;26;20284;-58
2024/04/19 11:43:41;;;;;;;0.77;0.67;;;;;;;;;;5492247;25;20232;-57
2024/04/19 11:46:10;;;;;;;0.47;0.40;;;;;;;;;;5487747;26;20563;-57
2024/04/19 11:48:42;;;;;;;0.30;0.30;;;;;;;;;;5487196;26;20230;-58
2024/04/19 11:51:13;;;;;;;0.30;0.30;;;;;;;;;;5487916;26;20277;-57
2024/04/19 11:53:42;;;;;;;0.57;0.30;;;;;;;;;;5518992;26;20270;-58
2024/04/19 11:56:11;;;;;;;1.50;0.47;;;;;;;;;;5487687;26;20587;-57
2024/04/19 11:58:59;;;;;;;0.47;0.47;;;;;;;;;;5486914;26;20236;-59
2024/04/19 12:01:28;;;;;;;0.87;0.40;;;;;;;;;;5487343;26;20234;-58
2024/04/19 12:03:59;;;;;;;0.40;0.40;;;;;;;;;;5487404;26;20221;-58
2024/04/19 12:06:28;;;;;;;0.30;0.30;;;;;;;;;;5498981;26;20230;-58
2024/04/19 12:08:57;;;;;;;1.63;0.37;;;;;;;;;;5521147;26;20220;-58
2024/04/19 12:11:26;;;;;;;1.37;0.60;;;;;;;;;;5510364;25;20273;-58
2024/04/19 12:13:55;;;;;;;0.33;0.33;;;;;;;;;;5487635;26;20235;-58
2024/04/19 12:16:25;;;;;;;0.40;0.40;;;;;;;;;;5487330;26;20227;-58
2024/04/19 12:18:54;;;;;;;1.40;0.50;;;;;;;;;;5486779;26;20238;-58
2024/04/19 12:21:26;;;;;;;0.73;0.40;;;;;;;;;;5487216;26;20235;-58
2024/04/19 12:23:55;;;;;;;0.40;0.40;;;;;;;;;;5491223;26;20232;-58
2024/04/19 12:26:24;;;;;;;0.53;0.53;;;;;;;;;;5487138;26;20282;-58
2024/04/19 12:28:53;;;;;;;2.10;0.40;;;;;;;;;;5502699;26;20231;-58
2024/04/19 12:31:22;;;;;;;0.90;0.70;;;;;;;;;;5487003;26;20236;-58
2024/04/19 12:33:51;;;;;;;0.50;0.50;;;;;;;;;;5486710;26;20739;-57
2024/04/19 12:36:20;;;;;;;0.40;0.40;;;;;;;;;;5486913;26;20230;-58
2024/04/19 12:38:52;;;;;;;1.53;0.40;;;;;;;;;;5489273;26;20231;-58
2024/04/19 12:41:21;;;;;;;0.57;0.57;;;;;;;;;;5486758;26;20231;-57
2024/04/19 12:43:50;;;;;;;1.83;1.53;;;;;;;;;;5491998;26;20219;-58
2024/04/19 12:46:20;;;;;;;4.03;0.77;;;;;;;;;;5512467;25;20272;-58
2024/04/19 12:48:49;;;;;;;0.30;0.30;;;;;;;;;;5486120;26;20228;-58
2024/04/19 12:51:23;;;;;;;0.87;0.40;;;;;;;;;;5486514;26;20731;-58
2024/04/19 12:53:54;;;;;;;0.20;0.20;;;;;;;;;;5486519;26;20228;-58
2024/04/19 12:56:24;;;;;;;0.20;0.20;;;;;;;;;;5496092;26;20310;-57
2024/04/19 12:58:53;;;;;;;0.93;0.50;;;;;;;;;;5502907;26;20229;-58
2024/04/19 13:01:22;;;;;;;0.40;0.30;;;;;;;;;;5499397;26;20228;-58
2024/04/19 13:03:51;;;;;;;0.30;0.30;;;;;;;;;;5488574;26;20746;-58
2024/04/19 13:06:20;;;;;;;0.30;0.30;;;;;;;;;;5486198;26;20281;-57
2024/04/19 13:08:49;;;;;;;0.33;0.30;;;;;;;;;;5485593;26;20364;-58
2024/04/19 13:11:21;;;;;;;0.40;0.40;;;;;;;;;;5486175;26;20279;-58
2024/04/19 13:13:52;;;;;;;0.70;0.20;;;;;;;;;;5489838;26;20231;-57
2024/04/19 13:16:21;;;;;;;1.70;0.30;;;;;;;;;;5486044;26;20745;-58
2024/04/19 13:18:50;;;;;;;0.20;0.20;;;;;;;;;;5500805;26;20566;-58
2024/04/19 13:21:16;;;;;;;0.23;0.23;;;;;;;;;;5487486;26;20241;-58
2024/04/19 13:23:45;;;;;;;1.27;0.40;;;;;;;;;;5488344;26;20231;-58
2024/04/19 13:26:14;;;;;;;0.23;0.23;;;;;;;;;;5490670;26;20227;-58
2024/04/19 13:28:51;;;;;;;0.27;0.20;;;;;;;;;;5508028;26;20252;-59
2024/04/19 13:31:20;;;;;;;1.10;0.40;;;;;;;;;;5511411;26;20358;-58
2024/04/19 13:33:49;;;;;;;0.20;0.20;;;;;;;;;;5524991;26;20269;-58
2024/04/19 13:36:18;;;;;;;0.20;0.20;;;;;;;;;;5511776;26;20234;-58
2024/04/19 13:38:47;;;;;;;0.20;0.20;;;;;;;;;;5507532;25;20233;-58
2024/04/19 13:41:16;;;;;;;0.20;0.20;;;;;;;;;;5493107;26;20659;-58
2024/04/19 13:43:47;;;;;;;0.20;0.20;;;;;;;;;;5493463;25;20739;-58
2024/04/19 13:46:16;;;;;;;0.27;0.27;;;;;;;;;;5496702;26;20229;-58
2024/04/19 13:48:45;;;;;;;0.40;0.40;;;;;;;;;;5507951;25;20234;-58
2024/04/19 13:51:14;;;;;;;0.20;0.20;;;;;;;;;;5489106;26;20282;-58
2024/04/19 13:53:43;;;;;;;0.20;0.20;;;;;;;;;;5521132;26;20731;-58
2024/04/19 13:56:12;;;;;;;0.40;0.40;;;;;;;;;;5489085;26;20232;-58
2024/04/19 13:58:41;;;;;;;0.50;0.23;;;;;;;;;;5490454;26;20235;-58
2024/04/19 14:01:15;;;;;;;0.20;0.20;;;;;;;;;;5488963;26;20799;-58
2024/04/19 14:03:44;;;;;;;4.73;0.20;;;;;;;;;;5506295;26;20842;-58
2024/04/19 14:06:15;;;;;;;0.30;0.30;;;;;;;;;;5501276;25;20231;-58
2024/04/19 14:08:44;;;;;;;0.30;0.30;;;;;;;;;;5492273;26;20365;-58
2024/04/19 14:11:13;;;;;;;0.20;0.20;;;;;;;;;;5525427;25;20234;-58
2024/04/19 14:13:42;;;;;;;0.40;0.40;;;;;;;;;;5520537;26;20772;-58
2024/04/19 14:16:13;;;;;;;1.60;0.40;;;;;;;;;;5488823;26;20227;-58
2024/04/19 14:18:42;;;;;;;0.43;0.20;;;;;;;;;;5488334;26;20276;-58
2024/04/19 14:21:11;;;;;;;0.10;0.10;;;;;;;;;;5488738;26;20586;-58
2024/04/19 14:23:47;;;;;;;1.03;0.30;;;;;;;;;;5488838;26;20278;-58
2024/04/19 14:26:16;;;;;;;0.30;0.20;;;;;;;;;;5501191;26;20611;-58
2024/04/19 14:28:45;;;;;;;0.40;0.40;;;;;;;;;;5513785;25;20233;-58
2024/04/19 14:31:16;;;;;;;0.30;0.30;;;;;;;;;;5511614;26;20282;-58
2024/04/19 14:33:45;;;;;;;0.23;0.23;;;;;;;;;;5504188;26;20228;-57
2024/04/19 14:36:14;;;;;;;1.10;0.20;;;;;;;;;;5509469;25;20271;-58
2024/04/19 14:38:43;;;;;;;0.13;0.13;;;;;;;;;;5508284;26;20612;-58
2024/04/19 14:41:12;;;;;;;0.40;0.40;;;;;;;;;;5506180;25;20238;-58
2024/04/19 14:43:41;;;;;;;0.20;0.20;;;;;;;;;;5505991;26;20228;-59
2024/04/19 14:46:10;;;;;;;0.37;0.30;;;;;;;;;;5516107;26;20237;-58
2024/04/19 14:48:39;;;;;;;0.23;0.23;;;;;;;;;;5508543;26;20281;-59
2024/04/19 14:51:08;;;;;;;0.30;0.30;;;;;;;;;;5504046;26;20246;-58
2024/04/19 14:53:37;;;;;;;0.50;0.20;;;;;;;;;;5503623;26;20583;-58
2024/04/19 14:56:07;;;;;;;0.43;0.40;;;;;;;;;;5503822;26;20277;-58
2024/04/19 14:58:36;;;;;;;1.10;0.60;;;;;;;;;;5503819;26;20278;-58
2024/04/19 15:01:05;;;;;;;0.67;0.40;;;;;;;;;;5508026;26;20826;-58
2024/04/19 15:03:34;;;;;;;1.27;0.30;;;;;;;;;;5508795;26;20238;-58